createdAt,value
2017-06-10T15:13:39.883Z,1.60
2017-06-10T15:16:07.340Z,1.50
2017-06-10T15:18:34.859Z,1.90
2017-06-10T15:21:03.128Z,1.90
2017-06-10T15:23:30.633Z,1.80
2017-06-10T15:25:58.127Z,1.60
2017-06-10T15:28:25.627Z,1.60
2017-06-10T15:30:53.876Z,1.67
2017-06-10T15:33:21.359Z,1.83
2017-06-10T15:35:49.612Z,1.60
2017-06-10T15:38:17.096Z,1.50
2017-06-10T15:40:45.355Z,1.90
2017-06-10T15:43:12.843Z,1.63
2017-06-10T15:45:40.284Z,1.30
2017-06-10T15:48:07.742Z,1.30
2017-06-10T15:50:35.952Z,1.90
2017-06-10T15:53:03.444Z,1.23
2017-06-10T15:55:30.892Z,1.53
2017-06-10T15:57:58.352Z,1.73
2017-06-10T16:00:25.839Z,1.47
2017-06-10T16:02:54.095Z,1.70
2017-06-10T16:05:21.575Z,2.10
2017-06-10T16:07:49.831Z,1.93
2017-06-10T16:10:17.277Z,1.63
2017-06-10T16:12:44.768Z,1.63
2017-06-10T16:15:12.260Z,1.40
2017-06-10T16:17:39.688Z,1.67
2017-06-10T16:20:07.183Z,1.60
2017-06-10T16:22:34.667Z,1.60
2017-06-10T16:25:02.113Z,1.70
2017-06-10T16:27:29.564Z,6.60
2017-06-10T16:29:57.059Z,1.87
2017-06-10T16:32:24.547Z,1.90
2017-06-10T16:34:52.811Z,2.30
2017-06-10T16:37:21.018Z,2.53
2017-06-10T16:39:48.512Z,1.83
2017-06-10T16:42:16.004Z,1.93
2017-06-10T16:44:43.478Z,2.73
2017-06-10T16:47:10.963Z,1.83
2017-06-10T16:49:38.440Z,1.27
2017-06-10T16:52:05.888Z,1.60
2017-06-10T16:54:33.344Z,1.80
2017-06-10T16:57:00.796Z,1.53
2017-06-10T16:59:28.241Z,1.40
2017-06-10T17:01:55.815Z,1.80
2017-06-10T17:04:23.314Z,1.40
2017-06-10T17:06:50.789Z,1.73
2017-06-10T17:09:19.047Z,1.60
2017-06-10T17:11:46.533Z,1.50
2017-06-10T17:14:14.015Z,1.60
2017-06-10T17:16:41.491Z,1.60
2017-06-10T17:19:08.987Z,1.43
2017-06-10T17:21:36.467Z,1.47
2017-06-10T17:24:04.724Z,1.70
2017-06-10T17:26:32.172Z,1.80
2017-06-10T17:28:59.667Z,1.73
2017-06-10T17:31:27.109Z,1.83
2017-06-10T17:33:55.372Z,1.50
2017-06-10T17:36:22.860Z,1.63
2017-06-10T17:38:50.340Z,1.50
2017-06-10T17:41:17.827Z,1.90
2017-06-10T17:43:45.364Z,1.73
2017-06-10T17:46:12.851Z,1.67
2017-06-10T17:48:40.331Z,1.60
2017-06-10T17:51:07.819Z,1.53
2017-06-10T17:53:35.401Z,1.40
2017-06-10T17:56:02.875Z,1.40
2017-06-10T17:58:30.360Z,1.60
2017-06-10T18:00:57.809Z,1.80
2017-06-10T18:03:25.316Z,1.93
2017-06-10T18:05:52.799Z,1.33
2017-06-10T18:08:20.288Z,1.53
2017-06-10T18:10:47.763Z,1.77
2017-06-10T18:13:15.247Z,1.63
2017-06-10T18:15:42.736Z,1.87
2017-06-10T18:18:10.286Z,1.33
2017-06-10T18:20:37.734Z,1.40
2017-06-10T18:23:05.232Z,1.70
2017-06-10T18:25:32.681Z,1.60
2017-06-10T18:28:00.136Z,1.43
2017-06-10T18:30:33.337Z,1.80
2017-06-10T18:33:00.827Z,1.80
2017-06-10T18:35:29.049Z,2.30
2017-06-10T18:37:56.531Z,1.70
2017-06-10T18:40:23.978Z,1.67
2017-06-10T18:42:51.468Z,1.73
2017-06-10T18:45:18.912Z,1.43
2017-06-10T18:47:46.399Z,1.70
2017-06-10T18:50:14.644Z,1.63
2017-06-10T18:52:42.136Z,1.80
2017-06-10T18:55:10.391Z,1.97
2017-06-10T18:57:37.845Z,2.20
2017-06-10T19:00:05.340Z,1.50
2017-06-10T19:02:33.587Z,1.87
2017-06-10T19:05:01.080Z,2.20
2017-06-10T19:07:28.559Z,2.40
2017-06-10T19:09:56.039Z,2.10
2017-06-10T19:12:23.514Z,2.20
2017-06-10T19:14:50.991Z,2.80
2017-06-10T19:17:18.506Z,2.40
2017-06-10T19:19:45.979Z,2.77
2017-06-10T19:22:13.467Z,2.73
2017-06-10T19:24:41.723Z,2.80
2017-06-10T19:27:09.211Z,3.47
2017-06-10T19:29:37.493Z,3.00
2017-06-10T19:32:05.749Z,3.80
2017-06-10T19:34:33.235Z,3.63
2017-06-10T19:37:00.711Z,3.97
2017-06-10T19:39:28.155Z,3.97
2017-06-10T19:41:55.634Z,3.53
2017-06-10T19:44:23.114Z,3.30
2017-06-10T19:46:50.564Z,3.33
2017-06-10T19:49:18.055Z,4.00
2017-06-10T19:51:45.492Z,3.90
2017-06-10T19:54:12.991Z,4.43
2017-06-10T19:56:42.791Z,5.13
2017-06-10T19:59:10.279Z,4.70
2017-06-10T20:01:37.805Z,5.47
2017-06-10T20:04:05.257Z,5.57
2017-06-10T20:06:32.747Z,5.10
2017-06-10T20:09:00.991Z,5.03
2017-06-10T20:11:28.475Z,5.50
2017-06-10T20:13:56.723Z,4.90
2017-06-10T20:16:24.306Z,4.90
2017-06-10T20:18:52.520Z,4.53
2017-06-10T20:21:20.011Z,4.50
2017-06-10T20:23:47.503Z,4.87
2017-06-10T20:26:15.740Z,4.20
2017-06-10T20:28:43.331Z,4.43
2017-06-10T20:31:11.619Z,4.60
2017-06-10T20:33:39.852Z,4.10
2017-06-10T20:36:07.451Z,4.57
2017-06-10T20:38:35.668Z,4.13
2017-06-10T20:41:03.199Z,4.57
2017-06-10T20:43:31.437Z,5.53
2017-06-10T20:45:59.028Z,5.10
2017-06-10T20:48:27.303Z,6.17
2017-06-10T20:50:55.581Z,6.30
2017-06-10T20:53:23.864Z,5.30
2017-06-10T20:55:52.097Z,4.20
2017-06-10T20:58:19.710Z,4.57
2017-06-10T21:00:47.263Z,4.50
2017-06-10T21:03:14.827Z,4.77
2017-06-10T21:05:42.317Z,4.20
2017-06-10T21:08:09.756Z,4.77
2017-06-10T21:10:37.255Z,4.00
2017-06-10T21:13:04.851Z,4.60
2017-06-10T21:15:33.112Z,4.47
2017-06-10T21:18:00.560Z,4.60
2017-06-10T21:20:28.012Z,4.10
2017-06-10T21:22:55.503Z,4.57
2017-06-10T21:25:23.763Z,4.30
2017-06-10T21:27:51.213Z,4.33
2017-06-10T21:30:18.699Z,3.50
2017-06-10T21:32:46.959Z,4.03
2017-06-10T21:35:14.468Z,4.47
2017-06-10T21:37:41.921Z,4.27
2017-06-10T21:40:09.411Z,3.83
2017-06-10T21:42:36.901Z,4.17
2017-06-10T21:45:04.352Z,4.70
2017-06-10T21:47:32.615Z,3.93
2017-06-10T21:50:00.104Z,4.27
2017-06-10T21:52:27.602Z,3.70
2017-06-10T21:54:55.092Z,4.30
2017-06-10T21:57:22.549Z,3.93
2017-06-10T21:59:50.048Z,3.90
2017-06-10T22:02:17.535Z,4.30
2017-06-10T22:04:44.988Z,3.93
2017-06-10T22:07:12.484Z,4.13
2017-06-10T22:09:39.971Z,4.00
2017-06-10T22:12:07.463Z,4.63
2017-06-10T22:14:34.963Z,3.57
2017-06-10T22:17:02.451Z,4.13
2017-06-10T22:19:30.673Z,3.60
2017-06-10T22:21:58.171Z,4.20
2017-06-10T22:24:26.436Z,4.80
2017-06-10T22:26:53.927Z,4.90
2017-06-10T22:29:21.420Z,4.47
2017-06-10T22:31:48.872Z,4.27
2017-06-10T22:34:16.768Z,4.57
2017-06-10T22:36:44.267Z,4.60
2017-06-10T22:39:11.721Z,4.10
2017-06-10T22:41:39.211Z,4.30
2017-06-10T22:44:06.707Z,4.63
2017-06-10T22:46:34.195Z,5.20
2017-06-10T22:49:01.691Z,5.43
2017-06-10T22:51:29.203Z,4.63
2017-06-10T22:53:57.463Z,4.80
2017-06-10T22:56:24.963Z,4.70
2017-06-10T22:58:52.431Z,4.80
2017-06-10T23:01:19.934Z,4.17
2017-06-10T23:03:47.373Z,5.10
2017-06-10T23:06:14.875Z,4.47
2017-06-10T23:08:43.139Z,5.33
2017-06-10T23:11:10.632Z,5.03
2017-06-10T23:13:38.133Z,5.40
2017-06-10T23:16:05.628Z,5.00
2017-06-10T23:18:33.891Z,4.13
2017-06-10T23:21:01.380Z,4.17
2017-06-10T23:23:28.876Z,4.57
2017-06-10T23:25:56.324Z,4.87
2017-06-10T23:28:23.824Z,4.13
2017-06-10T23:30:51.307Z,4.47
2017-06-10T23:33:18.901Z,4.80
2017-06-10T23:35:46.444Z,3.53
2017-06-10T23:38:13.900Z,4.30
2017-06-10T23:40:41.391Z,3.97
2017-06-10T23:43:08.849Z,4.50
2017-06-10T23:45:36.305Z,4.73
2017-06-10T23:48:03.762Z,5.30
2017-06-10T23:50:31.266Z,5.17
2017-06-10T23:52:58.713Z,4.67
2017-06-10T23:55:26.204Z,4.50
2017-06-10T23:57:53.700Z,4.43
